Time;durP1;ratioP1;P1;durP2;ratioP2;P2;SDS_P1;SDS_P2;PMS_P1;PMS_P2;Temp;Humidity;BMP_temperature;BMP_pressure;BME280_temperature;BME280_humidity;BME280_pressure;Samples;Min_cycle;Max_cycle;Signal;HPM_P1;HPM_P2
2022/03/28 00:03:40;;;;;;;8.00;7.25;;;;;;;14.26;56.48;101096.97;10355974;28;20081;-63
2022/03/28 00:08:42;;;;;;;8.05;7.25;;;;;;;14.31;56.57;101118.00;10355729;28;20524;-63
2022/03/28 00:13:44;;;;;;;8.02;7.32;;;;;;;14.00;56.88;101074.16;10358919;28;20132;-63
2022/03/28 00:18:46;;;;;;;7.75;6.95;;;;;;;14.13;57.02;101112.31;10358487;28;20057;-62
2022/03/28 00:23:47;;;;;;;8.25;7.40;;;;;;;14.11;57.31;101114.25;10357033;28;20664;-63
2022/03/28 00:28:49;;;;;;;7.80;7.00;;;;;;;14.10;57.15;101102.72;10354702;28;20052;-62
2022/03/28 00:33:50;;;;;;;8.70;7.80;;;;;;;14.02;57.26;101099.81;10356775;28;20136;-64
2022/03/28 00:38:52;;;;;;;7.60;6.55;;;;;;;14.00;57.43;101112.47;10357610;28;20229;-63
2022/03/28 00:43:58;;;;;;;9.45;7.60;;;;;;;13.97;57.64;101096.66;10357245;28;20077;-63
2022/03/28 00:49:00;;;;;;;8.60;7.25;;;;;;;13.86;57.92;101094.84;10362871;28;20665;-63
2022/03/28 00:54:02;;;;;;;7.55;6.85;;;;;;;13.86;57.94;101091.34;10360415;28;20423;-62
2022/03/28 00:59:04;;;;;;;10.20;7.72;;;;;;;13.84;58.11;101095.94;10355952;28;20551;-62
2022/03/28 01:04:07;;;;;;;10.38;8.02;;;;;;;13.83;58.14;101088.91;10357016;28;20091;-62
2022/03/28 01:09:08;;;;;;;9.80;8.80;;;;;;;13.72;58.35;101077.25;10354991;28;20133;-62
2022/03/28 01:14:10;;;;;;;8.90;8.10;;;;;;;13.30;58.52;101023.53;10361787;28;20054;-62
2022/03/28 01:19:12;;;;;;;8.40;7.60;;;;;;;13.60;58.58;101083.56;10356726;28;20416;-63
2022/03/28 01:24:13;;;;;;;10.43;8.52;;;;;;;13.51;59.12;101068.25;10355050;28;20144;-62
2022/03/28 01:29:15;;;;;;;8.98;8.07;;;;;;;13.44;59.21;101065.25;10351592;28;20050;-63
2022/03/28 01:34:20;;;;;;;8.88;7.97;;;;;;;13.39;59.30;101068.28;10355663;28;20060;-62
2022/03/28 01:39:21;;;;;;;9.82;8.82;;;;;;;13.18;59.50;101033.38;10355363;28;20599;-63
2022/03/28 01:44:23;;;;;;;8.80;7.90;;;;;;;13.24;59.95;101058.75;10356499;28;20119;-63
2022/03/28 01:49:25;;;;;;;9.57;8.68;;;;;;;13.19;59.97;101052.94;10360058;28;20046;-63
2022/03/28 01:54:26;;;;;;;9.82;8.85;;;;;;;12.92;60.34;101016.69;10355428;28;20136;-63
2022/03/28 01:59:28;;;;;;;9.25;8.35;;;;;;;13.07;60.56;101049.38;10354689;28;20057;-63
2022/03/28 02:04:32;;;;;;;9.45;8.55;;;;;;;13.01;60.75;101045.38;10352647;28;20147;-62
2022/03/28 02:09:33;;;;;;;10.32;9.25;;;;;;;12.91;60.90;101047.94;10354166;28;20700;-62
2022/03/28 02:14:34;;;;;;;10.93;9.15;;;;;;;12.87;60.81;101040.28;10355345;28;20049;-63
2022/03/28 02:19:36;;;;;;;9.25;8.35;;;;;;;12.86;61.04;101039.41;10352788;28;20056;-63
2022/03/28 02:24:39;;;;;;;9.45;8.65;;;;;;;12.80;61.12;101031.03;10351304;28;20069;-63
2022/03/28 02:29:40;;;;;;;9.75;8.80;;;;;;;12.83;61.32;101036.13;10348300;28;20148;-64
2022/03/28 02:34:41;;;;;;;12.68;9.15;;;;;;;12.77;61.17;101025.91;10354725;28;20149;-63
2022/03/28 02:39:43;;;;;;;10.50;9.48;;;;;;;12.75;61.41;101028.72;10349347;28;20508;-63
2022/03/28 02:44:44;;;;;;;10.55;9.48;;;;;;;12.67;61.38;101020.41;10352795;28;20053;-64
2022/03/28 02:49:47;;;;;;;9.80;8.80;;;;;;;12.72;61.27;101024.44;10355240;28;20787;-63
2022/03/28 02:54:49;;;;;;;9.98;9.07;;;;;;;12.36;61.62;100980.91;10356270;28;20054;-64
2022/03/28 02:59:50;;;;;;;12.25;10.85;;;;;;;12.53;62.16;101018.81;10354745;28;20046;-64
2022/03/28 03:04:52;;;;;;;10.45;9.38;;;;;;;12.17;62.56;100965.47;10351325;28;20204;-63
2022/03/28 03:09:53;;;;;;;11.23;10.13;;;;;;;12.32;62.75;100995.44;10351239;28;20056;-63
2022/03/28 03:14:54;;;;;;;10.60;9.55;;;;;;;12.24;62.82;100987.19;10354772;28;20160;-63
2022/03/28 03:19:56;;;;;;;11.88;10.13;;;;;;;12.21;62.92;100998.09;10354706;28;20056;-63
2022/03/28 03:24:58;;;;;;;9.48;8.57;;;;;;;12.21;63.04;100987.44;10352926;28;20052;-62
2022/03/28 03:29:59;;;;;;;10.30;9.40;;;;;;;12.18;63.02;100988.50;10353195;28;20124;-62
2022/03/28 03:35:00;;;;;;;10.30;9.23;;;;;;;12.14;63.07;100994.19;10355913;28;20140;-63
2022/03/28 03:40:04;;;;;;;11.13;9.85;;;;;;;12.19;63.04;100995.56;10352614;28;20577;-63
2022/03/28 03:45:06;;;;;;;10.73;9.73;;;;;;;12.14;62.68;100987.03;10355691;28;20167;-63
2022/03/28 03:50:08;;;;;;;11.00;9.95;;;;;;;12.11;63.20;100981.06;10361525;28;20067;-63
2022/03/28 03:55:11;;;;;;;11.55;9.88;;;;;;;11.99;63.73;100966.84;10376692;28;20113;-63
2022/03/28 04:00:13;;;;;;;11.75;10.25;;;;;;;11.89;63.94;100956.00;10382980;28;20072;-63
2022/03/28 04:05:14;;;;;;;10.50;9.40;;;;;;;11.63;64.19;100934.78;10380924;28;20136;-63
2022/03/28 04:10:16;;;;;;;10.63;9.57;;;;;;;11.81;63.91;100958.38;10357572;28;20053;-64
2022/03/28 04:15:18;;;;;;;11.45;9.57;;;;;;;11.76;64.64;100950.69;10356936;28;20053;-63
2022/03/28 04:20:20;;;;;;;11.35;10.25;;;;;;;11.79;64.26;100944.31;10355243;28;20677;-63
2022/03/28 04:25:21;;;;;;;12.40;11.20;;;;;;;11.80;64.26;100946.84;10356469;28;20045;-63
2022/03/28 04:30:23;;;;;;;10.27;9.27;;;;;;;11.80;64.29;100944.19;10357366;28;20073;-64
2022/03/28 04:35:24;;;;;;;11.15;10.05;;;;;;;11.72;64.47;100935.06;10355064;28;20063;-62
2022/03/28 04:40:27;;;;;;;11.25;9.90;;;;;;;11.72;64.60;100933.22;10358145;28;20665;-62
2022/03/28 04:45:30;;;;;;;13.27;10.23;;;;;;;11.67;64.88;100935.41;10351364;28;20576;-64
2022/03/28 04:50:31;;;;;;;11.82;10.50;;;;;;;11.60;64.99;100926.97;10354822;28;20057;-64
2022/03/28 04:55:33;;;;;;;10.88;9.75;;;;;;;11.64;64.93;100939.13;10357676;28;20069;-63
2022/03/28 05:00:34;;;;;;;12.07;10.77;;;;;;;11.44;64.97;100897.09;10356430;28;20053;-63
2022/03/28 05:05:36;;;;;;;10.80;9.80;;;;;;;11.78;64.63;100942.59;10357252;28;20049;-64
2022/03/28 05:10:37;;;;;;;11.40;10.20;;;;;;;11.80;64.27;100956.66;10355940;28;20188;-64
2022/03/28 05:15:39;;;;;;;10.45;9.35;;;;;;;11.72;64.65;100948.38;10347776;28;20127;-64
2022/03/28 05:20:41;;;;;;;11.20;10.02;;;;;;;11.67;64.65;100944.22;10345645;28;20099;-64
2022/03/28 05:25:43;;;;;;;13.05;11.77;;;;;;;11.68;64.49;100937.94;10337306;28;20196;-64
2022/03/28 05:30:45;;;;;;;11.23;10.13;;;;;;;11.62;64.76;100938.41;10342684;28;20759;-64
2022/03/28 05:35:46;;;;;;;13.07;11.10;;;;;;;11.56;65.01;100944.19;10342361;28;20110;-63
2022/03/28 05:40:48;;;;;;;12.00;10.73;;;;;;;11.45;65.72;100945.00;10341419;28;20247;-61
2022/03/28 05:45:52;;;;;;;13.07;10.90;;;;;;;11.40;65.63;100944.47;10340592;28;20069;-61
2022/03/28 05:50:53;;;;;;;12.57;11.23;;;;;;;11.34;66.07;100944.06;10337058;28;20129;-64
2022/03/28 05:55:55;;;;;;;12.18;10.93;;;;;;;11.34;66.23;100944.06;10335870;28;20053;-61
2022/03/28 06:00:58;;;;;;;16.48;11.88;;;;;;;11.41;66.10;100947.97;10342192;28;20040;-62
2022/03/28 06:06:02;;;;;;;16.27;13.00;;;;;;;11.42;65.95;100947.00;10337640;28;20054;-63
2022/03/28 06:11:03;;;;;;;16.58;14.00;;;;;;;11.48;66.07;100943.88;10339225;28;20228;-62
2022/03/28 06:16:05;;;;;;;20.30;15.07;;;;;;;11.58;65.64;100950.25;10338476;28;20140;-62
2022/03/28 06:21:07;;;;;;;25.00;16.13;;;;;;;11.61;65.16;100950.03;10337073;28;20044;-61
2022/03/28 06:26:12;;;;;;;24.38;16.63;;;;;;;11.78;64.88;100947.91;10338856;28;20052;-61
2022/03/28 06:31:13;;;;;;;27.08;14.63;;;;;;;11.81;64.60;100927.22;10333234;28;20062;-61
2022/03/28 06:36:15;;;;;;;14.43;12.60;;;;;;;12.14;64.29;100943.47;10327469;28;20045;-62
2022/03/28 06:41:16;;;;;;;13.55;11.68;;;;;;;12.38;63.31;100941.63;10332793;28;20068;-62
2022/03/28 06:46:20;;;;;;;12.68;11.35;;;;;;;12.57;62.48;100940.19;10334780;28;20459;-61
2022/03/28 06:51:21;;;;;;;12.93;11.03;;;;;;;12.71;62.33;100929.25;10337199;28;20048;-62
2022/03/28 06:56:23;;;;;;;32.47;19.92;;;;;;;12.84;61.40;100921.13;10335243;28;20235;-60
2022/03/28 07:01:24;;;;;;;52.60;28.23;;;;;;;13.09;60.82;100927.19;10334230;28;20046;-61
2022/03/28 07:06:26;;;;;;;35.10;20.85;;;;;;;13.23;60.36;100932.25;10334416;28;20182;-61
2022/03/28 07:11:27;;;;;;;17.38;11.38;;;;;;;13.38;59.57;100919.50;10338985;28;20075;-61
2022/03/28 07:16:28;;;;;;;12.18;10.95;;;;;;;13.32;59.35;100881.69;10338999;28;22117;-61
2022/03/28 07:21:31;;;;;;;14.93;9.30;;;;;;;13.68;58.62;100915.28;10334827;28;20420;-60
2022/03/28 07:26:32;;;;;;;17.55;10.57;;;;;;;13.65;58.09;100882.59;10333788;28;20063;-60
2022/03/28 07:31:36;;;;;;;14.93;13.30;;;;;;;14.07;57.42;100910.22;10339447;28;20058;-60
2022/03/28 07:36:37;;;;;;;17.40;12.67;;;;;;;14.10;57.05;100898.41;10346362;28;20064;-61
2022/03/28 07:41:39;;;;;;;13.02;11.70;;;;;;;14.30;56.65;100899.38;10342263;28;20046;-60
2022/03/28 07:46:41;;;;;;;11.05;9.95;;;;;;;14.57;55.76;100890.78;10342702;28;20087;-59
2022/03/28 07:51:43;;;;;;;14.77;11.60;;;;;;;14.77;54.93;100886.38;10332087;28;20053;-60
2022/03/28 07:56:45;;;;;;;14.30;12.52;;;;;;;15.03;54.55;100884.06;10339911;28;20113;-61
2022/03/28 08:01:46;;;;;;;13.15;11.77;;;;;;;15.28;53.50;100881.88;10341397;28;20054;-61
2022/03/28 08:06:48;;;;;;;13.82;11.82;;;;;;;15.29;53.44;100890.75;10340653;28;20060;-61
2022/03/28 08:11:49;;;;;;;12.45;11.05;;;;;;;15.43;53.21;100887.66;10344013;28;20053;-62
2022/03/28 08:16:51;;;;;;;12.05;10.95;;;;;;;15.66;51.91;100855.19;10341318;28;20642;-61
2022/03/28 08:21:53;;;;;;;12.35;11.05;;;;;;;15.96;51.50;100867.63;10339324;28;20065;-61
2022/03/28 08:26:54;;;;;;;17.73;13.10;;;;;;;16.17;50.77;100864.75;10337939;28;20369;-63
2022/03/28 08:31:57;;;;;;;15.80;14.10;;;;;;;16.43;49.70;100858.75;10342549;28;20053;-62
2022/03/28 08:36:59;;;;;;;13.13;11.75;;;;;;;16.82;49.27;100863.09;10338079;28;21101;-60
2022/03/28 08:42:00;;;;;;;14.52;12.93;;;;;;;16.98;48.53;100855.25;10338709;28;20768;-60
2022/03/28 08:47:02;;;;;;;13.90;11.98;;;;;;;17.31;47.37;100839.47;10338007;28;20524;-61
2022/03/28 08:52:07;;;;;;;14.10;12.70;;;;;;;17.69;46.73;100839.31;10336839;28;20267;-60
2022/03/28 08:57:11;;;;;;;16.88;12.18;;;;;;;17.94;45.81;100830.44;10343701;28;20046;-61
2022/03/28 09:02:50;;;;;;;16.08;12.75;;;;;;;18.11;45.22;100795.53;10340762;28;20113;-61
2022/03/28 09:07:52;;;;;;;14.15;11.57;;;;;;;18.72;44.11;100821.41;10338653;28;20424;-61
2022/03/28 09:13:04;;;;;;;14.35;11.45;;;;;;;18.56;44.56;100783.59;10339065;28;20210;-61
2022/03/28 09:18:05;;;;;;;16.83;11.25;;;;;;;18.91;44.72;100822.16;10339983;28;20147;-61
2022/03/28 09:23:46;;;;;;;15.50;13.20;;;;;;;19.48;42.85;100815.19;10333723;28;20058;-61
2022/03/28 09:28:54;;;;;;;17.42;13.02;;;;;;;20.07;41.00;100807.75;10315705;28;20050;-60
2022/03/28 09:34:06;;;;;;;14.45;13.15;;;;;;;20.48;39.76;100807.59;10339328;28;20204;-60
2022/03/28 09:39:23;;;;;;;11.13;10.02;;;;;;;20.47;40.61;100799.66;10339754;28;20084;-60
2022/03/28 09:44:48;;;;;;;11.50;10.30;;;;;;;20.80;39.32;100784.16;10337726;28;20438;-61
2022/03/28 09:49:55;;;;;;;10.93;9.82;;;;;;;20.89;39.40;100765.19;10339117;28;20049;-61
2022/03/28 09:55:00;;;;;;;13.63;9.85;;;;;;;21.15;38.95;100765.66;10336631;28;20055;-61
2022/03/28 10:00:20;;;;;;;12.98;10.30;;;;;;;21.83;37.34;100754.09;10337350;28;20057;-62
2022/03/28 10:05:22;;;;;;;9.55;8.55;;;;;;;22.16;36.51;100721.19;10340077;28;20056;-61
2022/03/28 10:10:24;;;;;;;11.38;9.15;;;;;;;22.84;35.61;100751.66;10339430;28;20060;-61
2022/03/28 10:15:25;;;;;;;10.82;9.68;;;;;;;23.71;34.30;100743.50;10337062;28;20072;-61
2022/03/28 10:20:26;;;;;;;10.88;8.77;;;;;;;27.62;28.01;100730.00;10338436;28;20060;-61
2022/03/28 10:25:39;;;;;;;10.00;9.00;;;;;;;30.67;23.11;100717.44;10335491;28;20054;-61
2022/03/28 10:30:42;;;;;;;14.85;9.32;;;;;;;31.32;22.10;100713.38;10338153;28;20079;-61
2022/03/28 10:35:59;;;;;;;8.95;8.05;;;;;;;29.39;24.33;100696.31;10333415;28;20067;-62
2022/03/28 10:41:03;;;;;;;11.38;8.75;;;;;;;28.62;24.86;100686.16;10338822;28;20057;-62
2022/03/28 10:46:12;;;;;;;10.38;9.30;;;;;;;28.90;24.44;100652.63;10340733;28;20080;-62
2022/03/28 10:51:21;;;;;;;10.02;9.13;;;;;;;32.84;19.95;100677.34;10335018;28;20116;-63
2022/03/28 10:56:30;;;;;;;11.93;10.70;;;;;;;35.50;17.55;100671.13;10341745;28;20057;-62
2022/03/28 11:01:34;;;;;;;11.60;10.40;;;;;;;37.34;15.99;100662.03;10337928;28;20062;-62
2022/03/28 11:07:03;;;;;;;12.00;10.57;;;;;;;39.05;13.42;100648.28;10344182;28;20059;-62
2022/03/28 11:12:14;;;;;;;9.10;8.30;;;;;;;39.98;13.25;100629.75;10345196;28;20043;-62
2022/03/28 11:17:21;;;;;;;8.60;7.80;;;;;;;40.55;10.62;100612.59;10346069;28;20072;-63
2022/03/28 11:22:40;;;;;;;8.88;7.97;;;;;;;40.44;10.96;100614.78;10343891;28;20042;-63
2022/03/28 11:27:42;;;;;;;8.93;7.07;;;;;;;40.94;10.11;100593.44;10343586;28;20056;-62
2022/03/28 11:32:44;;;;;;;8.18;6.35;;;;;;;41.74;10.05;100596.25;10342934;28;20056;-63
2022/03/28 11:37:45;;;;;;;7.25;6.43;;;;;;;40.20;10.65;100584.38;10344245;28;20057;-63
2022/03/28 11:42:49;;;;;;;7.60;6.63;;;;;;;42.08;9.68;100586.22;10346920;28;20096;-63
2022/03/28 11:47:52;;;;;;;7.45;6.75;;;;;;;41.68;10.39;100564.81;10344687;28;20050;-63
2022/03/28 11:52:53;;;;;;;9.15;6.45;;;;;;;42.42;9.30;100553.84;10339241;28;20053;-62
2022/03/28 11:58:15;;;;;;;7.18;6.20;;;;;;;42.85;8.96;100558.50;10345071;28;20103;-64
2022/03/28 12:03:17;;;;;;;5.00;4.47;;;;;;;44.00;8.19;100544.69;10341298;28;20103;-63
2022/03/28 12:08:19;;;;;;;8.35;6.72;;;;;;;44.57;8.00;100531.94;10348280;28;20054;-63
2022/03/28 12:13:25;;;;;;;6.88;5.90;;;;;;;45.31;7.73;100532.84;10343095;28;20618;-63
2022/03/28 12:18:30;;;;;;;5.97;4.80;;;;;;;44.94;7.28;100506.75;10346728;28;20180;-64
2022/03/28 12:23:31;;;;;;;6.30;5.70;;;;;;;44.17;8.24;100505.28;10339517;28;20152;-64
2022/03/28 12:28:35;;;;;;;5.25;4.82;;;;;;;45.04;7.80;100491.41;10339512;28;20041;-64
2022/03/28 12:33:39;;;;;;;6.40;4.80;;;;;;;45.33;6.66;100479.91;10342307;28;20050;-63
2022/03/28 12:38:44;;;;;;;6.00;5.45;;;;;;;45.46;6.82;100463.03;10345356;28;21666;-64
2022/03/28 12:43:47;;;;;;;6.80;5.38;;;;;;;45.34;6.96;100450.66;10344010;28;20045;-63
2022/03/28 12:48:51;;;;;;;4.70;4.30;;;;;;;45.14;7.21;100448.81;10345153;28;20723;-64
2022/03/28 12:54:15;;;;;;;7.18;4.88;;;;;;;45.10;6.52;100423.44;10343389;28;20063;-64
2022/03/28 12:59:20;;;;;;;7.93;4.70;;;;;;;45.37;7.12;100432.25;10344046;28;20441;-65
2022/03/28 13:04:24;;;;;;;6.35;4.00;;;;;;;45.23;6.97;100426.22;10341623;28;20052;-64
2022/03/28 13:09:26;;;;;;;5.95;4.88;;;;;;;44.62;7.54;100411.06;10343400;28;20127;-66
2022/03/28 13:14:30;;;;;;;5.90;5.32;;;;;;;43.04;7.84;100376.16;10346353;28;20899;-64
2022/03/28 13:19:31;;;;;;;5.57;5.05;;;;;;;43.50;8.22;100381.91;10340670;28;20092;-65
2022/03/28 13:24:35;;;;;;;6.70;6.07;;;;;;;40.08;10.28;100350.03;10344390;28;20523;-64
2022/03/28 13:29:39;;;;;;;5.93;5.38;;;;;;;37.26;12.41;100361.03;10344287;28;20134;-65
2022/03/28 13:34:40;;;;;;;6.85;6.20;;;;;;;34.23;14.16;100355.88;10341301;28;20053;-64
2022/03/28 13:39:42;;;;;;;6.47;5.65;;;;;;;31.98;15.97;100346.63;10342584;28;20044;-63
2022/03/28 13:44:43;;;;;;;7.18;5.95;;;;;;;31.12;17.18;100344.69;10341000;28;20519;-64
2022/03/28 13:49:45;;;;;;;7.32;6.72;;;;;;;31.16;17.42;100329.34;10335936;28;20064;-64
2022/03/28 13:54:46;;;;;;;7.82;7.07;;;;;;;31.04;17.54;100318.50;10335030;28;20059;-63
2022/03/28 13:59:48;;;;;;;6.30;5.70;;;;;;;30.18;19.02;100319.84;10337866;28;20053;-62
2022/03/28 14:04:49;;;;;;;7.03;6.05;;;;;;;30.25;18.27;100325.97;10334122;28;20045;-62
2022/03/28 14:09:53;;;;;;;8.05;6.30;;;;;;;29.80;18.31;100321.44;10340761;28;20073;-60
2022/03/28 14:14:56;;;;;;;9.02;6.85;;;;;;;28.80;19.15;100299.88;10342548;28;20057;-60
2022/03/28 14:20:03;;;;;;;8.52;7.40;;;;;;;28.69;19.05;100293.34;10340005;28;20111;-60
2022/03/28 14:25:06;;;;;;;7.95;6.00;;;;;;;27.93;20.29;100289.72;10335484;28;20475;-59
2022/03/28 14:30:08;;;;;;;9.85;7.47;;;;;;;27.09;20.91;100285.94;10337922;28;20056;-61
2022/03/28 14:35:11;;;;;;;7.10;6.38;;;;;;;26.76;20.91;100291.88;10339845;28;20045;-60
2022/03/28 14:40:13;;;;;;;21.17;8.15;;;;;;;26.23;21.27;100271.47;10338364;28;20069;-60
2022/03/28 14:45:17;;;;;;;;;;;;;;;26.60;21.04;100266.00;10340103;28;20149;-60
2022/03/28 14:50:20;;;;;;;7.95;6.35;;;;;;;26.50;21.08;100262.97;10348378;28;20450;-60
2022/03/28 14:55:21;;;;;;;7.93;6.88;;;;;;;25.88;20.99;100264.66;10335794;28;21004;-61
2022/03/28 15:00:23;;;;;;;8.43;6.53;;;;;;;25.20;22.19;100257.22;10347118;28;20059;-61
2022/03/28 15:05:25;;;;;;;7.32;6.53;;;;;;;25.08;21.86;100237.19;10342043;28;20187;-61
2022/03/28 15:10:30;;;;;;;7.50;5.90;;;;;;;25.03;22.05;100241.41;10340070;28;20105;-60
2022/03/28 15:15:32;;;;;;;10.57;7.32;;;;;;;24.80;21.75;100231.06;10338872;28;20545;-62
2022/03/28 15:20:33;;;;;;;7.80;6.40;;;;;;;24.74;22.01;100214.78;10338196;28;20120;-62
2022/03/28 15:25:35;;;;;;;8.43;6.65;;;;;;;24.72;21.93;100193.22;10334736;28;20053;-61
2022/03/28 15:30:41;;;;;;;7.10;6.45;;;;;;;24.61;21.45;100230.13;10335332;28;20851;-61
2022/03/28 15:35:43;;;;;;;11.25;7.47;;;;;;;24.16;21.01;100208.31;10336071;28;20128;-60
2022/03/28 15:40:44;;;;;;;8.90;6.18;;;;;;;23.83;21.20;100198.31;10337065;28;20069;-61
2022/03/28 15:45:45;;;;;;;8.15;5.68;;;;;;;23.61;21.74;100168.66;10337889;28;20060;-62
2022/03/28 15:50:47;;;;;;;8.32;6.95;;;;;;;23.33;21.26;100192.50;10345759;28;20096;-60
2022/03/28 15:55:51;;;;;;;7.63;6.85;;;;;;;23.14;21.45;100191.47;10347454;28;20064;-61
2022/03/28 16:00:52;;;;;;;9.52;6.63;;;;;;;22.93;20.24;100194.13;10343822;28;20050;-62
2022/03/28 16:05:54;;;;;;;6.30;5.70;;;;;;;22.71;20.79;100168.19;10358092;28;20054;-61
2022/03/28 16:11:00;;;;;;;7.32;5.95;;;;;;;22.74;20.42;100167.78;10368319;28;20077;-62
2022/03/28 16:16:02;;;;;;;7.95;5.70;;;;;;;22.59;21.41;100171.53;10367438;28;20049;-62
2022/03/28 16:21:05;;;;;;;6.82;5.25;;;;;;;22.29;20.16;100164.69;10351622;28;20061;-62
2022/03/28 16:26:07;;;;;;;7.65;5.88;;;;;;;22.03;19.14;100152.72;10344853;28;20055;-61
2022/03/28 16:31:09;;;;;;;8.02;5.57;;;;;;;21.79;19.43;100121.53;10346071;28;20120;-61
2022/03/28 16:36:15;;;;;;;7.60;5.80;;;;;;;21.98;18.50;100145.19;10342722;28;20061;-61
2022/03/28 16:41:17;;;;;;;7.97;6.53;;;;;;;21.50;18.58;100105.31;10340834;28;20511;-60
2022/03/28 16:46:18;;;;;;;8.30;5.82;;;;;;;21.56;19.73;100141.63;10347707;28;20516;-60
2022/03/28 16:51:20;;;;;;;7.20;5.68;;;;;;;21.54;19.37;100135.53;10345521;28;20151;-60
2022/03/28 16:56:22;;;;;;;6.13;5.53;;;;;;;21.29;19.41;100105.38;10340970;28;20060;-60
2022/03/28 17:01:23;;;;;;;6.03;5.43;;;;;;;21.37;20.23;100132.28;10343141;28;20583;-60
2022/03/28 17:06:24;;;;;;;7.70;6.18;;;;;;;21.18;20.17;100096.75;10339908;28;20053;-60
2022/03/28 17:11:26;;;;;;;7.55;5.68;;;;;;;21.25;20.37;100117.63;10341602;28;20616;-60
2022/03/28 17:16:28;;;;;;;9.32;5.95;;;;;;;20.99;20.79;100124.50;10346673;28;20164;-62
2022/03/28 17:21:38;;;;;;;7.65;5.68;;;;;;;20.68;21.33;100074.28;10343212;28;20566;-61
2022/03/28 17:26:40;;;;;;;6.90;5.85;;;;;;;20.58;21.72;100076.44;10347474;28;20112;-60
2022/03/28 17:31:42;;;;;;;10.52;5.40;;;;;;;20.78;21.79;100109.94;10342207;28;20154;-62
2022/03/28 17:36:44;;;;;;;7.00;5.78;;;;;;;20.72;22.14;100110.72;10341356;28;20048;-61
2022/03/28 17:41:47;;;;;;;7.30;6.10;;;;;;;20.67;22.65;100110.44;10341228;28;20079;-62
2022/03/28 17:46:50;;;;;;;6.53;5.03;;;;;;;20.57;22.83;100101.81;10341031;28;20583;-61
2022/03/28 17:51:53;;;;;;;14.77;9.27;;;;;;;20.45;23.48;100105.00;10339213;28;20329;-62
2022/03/28 17:56:54;;;;;;;7.03;6.28;;;;;;;20.35;23.77;100093.66;10340958;28;20089;-62
2022/03/28 18:01:56;;;;;;;6.78;6.13;;;;;;;20.21;24.06;100089.16;10341322;28;20045;-63
2022/03/28 18:06:57;;;;;;;7.10;6.40;;;;;;;19.91;24.38;100059.50;10337113;28;20056;-59
2022/03/28 18:11:59;;;;;;;8.20;6.53;;;;;;;20.03;24.74;100093.09;10337940;28;20048;-60
2022/03/28 18:17:01;;;;;;;7.43;5.70;;;;;;;19.98;25.04;100092.81;10338152;28;20137;-61
2022/03/28 18:22:03;;;;;;;6.40;5.80;;;;;;;19.89;25.35;100096.66;10338717;28;20056;-61
2022/03/28 18:27:05;;;;;;;6.90;6.20;;;;;;;19.78;25.43;100093.41;10337984;28;20130;-61
2022/03/28 18:32:07;;;;;;;7.13;5.88;;;;;;;19.63;25.72;100099.81;10340462;28;20189;-61
2022/03/28 18:37:08;;;;;;;9.32;5.82;;;;;;;19.52;25.59;100093.03;10337011;28;20057;-61
2022/03/28 18:42:10;;;;;;;6.90;6.20;;;;;;;19.45;26.56;100087.53;10335762;28;20057;-61
2022/03/28 18:47:13;;;;;;;10.30;7.33;;;;;;;19.14;26.94;100053.47;10326363;28;20719;-63
2022/03/28 18:52:16;;;;;;;10.07;7.35;;;;;;;19.26;27.42;100094.31;10331738;28;20063;-62
2022/03/28 18:57:18;;;;;;;8.97;8.07;;;;;;;18.95;26.99;100059.38;10331981;28;20083;-61
2022/03/28 19:02:20;;;;;;;10.23;8.13;;;;;;;18.88;27.38;100054.69;10329279;28;20053;-61
2022/03/28 19:07:21;;;;;;;10.77;8.50;;;;;;;18.96;27.68;100083.47;10340656;28;20049;-60
2022/03/28 19:12:23;;;;;;;10.02;8.27;;;;;;;18.87;27.92;100084.53;10338391;28;20049;-61
2022/03/28 19:17:25;;;;;;;11.07;8.65;;;;;;;18.79;27.82;100087.28;10336969;28;20054;-62
2022/03/28 19:22:26;;;;;;;13.18;9.27;;;;;;;18.78;27.89;100091.84;10327836;28;20049;-61
2022/03/28 19:27:29;;;;;;;11.93;8.65;;;;;;;18.62;29.00;100078.50;10337572;28;20057;-62
2022/03/28 19:32:30;;;;;;;11.65;8.40;;;;;;;18.59;27.93;100079.69;10348032;28;20176;-62
2022/03/28 19:37:34;;;;;;;10.18;7.47;;;;;;;18.56;27.99;100074.66;10336336;28;20084;-63
2022/03/28 19:42:35;;;;;;;9.50;8.50;;;;;;;18.24;27.80;100035.31;10335569;28;20409;-62
2022/03/28 19:47:41;;;;;;;9.70;7.57;;;;;;;18.23;27.93;100066.81;10340456;28;20064;-62
2022/03/28 19:52:42;;;;;;;7.70;7.00;;;;;;;18.20;28.01;100051.81;10332835;28;20060;-61
2022/03/28 19:57:44;;;;;;;8.25;7.30;;;;;;;18.01;28.86;100036.97;10347920;28;20136;-61
2022/03/28 20:02:46;;;;;;;8.02;6.55;;;;;;;17.90;29.53;100040.06;10346222;28;20060;-61
2022/03/28 20:07:48;;;;;;;9.60;7.50;;;;;;;17.99;30.21;100070.47;10344042;28;20895;-61
2022/03/28 20:12:50;;;;;;;8.05;6.35;;;;;;;17.93;30.53;100077.41;10334918;28;20074;-61
2022/03/28 20:17:51;;;;;;;10.20;7.57;;;;;;;17.75;31.18;100063.34;10334089;28;20070;-61
2022/03/28 20:22:53;;;;;;;9.45;7.20;;;;;;;17.69;31.53;100072.94;10336184;28;20508;-62
2022/03/28 20:27:54;;;;;;;10.10;7.30;;;;;;;17.35;31.53;100032.88;10342832;28;20413;-63
2022/03/28 20:32:55;;;;;;;9.60;7.55;;;;;;;17.58;31.57;100068.78;10331484;28;20050;-63
2022/03/28 20:37:57;;;;;;;8.43;6.70;;;;;;;17.34;32.37;100064.31;10346762;28;20161;-63
2022/03/28 20:43:01;;;;;;;11.77;7.57;;;;;;;16.86;32.32;100064.19;10355816;28;20045;-63
2022/03/28 20:48:02;;;;;;;11.73;7.40;;;;;;;17.06;32.53;100062.00;10355838;28;20057;-63
2022/03/28 20:53:04;;;;;;;9.57;8.27;;;;;;;17.22;32.53;100058.47;10356873;28;20045;-64
2022/03/28 20:58:08;;;;;;;9.65;7.63;;;;;;;17.30;32.97;100053.03;10356053;28;20500;-63
2022/03/28 21:03:12;;;;;;;9.05;7.63;;;;;;;17.21;32.47;100045.19;10355853;28;20248;-62
2022/03/28 21:08:15;;;;;;;;;;;;;;;17.10;32.90;100055.28;10355445;28;20440;-62
2022/03/28 21:13:16;;;;;;;10.32;8.57;;;;;;;17.10;33.13;100041.00;10354760;28;20007;-63
2022/03/28 21:18:18;;;;;;;14.95;10.25;;;;;;;17.00;32.95;100043.88;10353846;28;20085;-62
2022/03/28 21:23:23;;;;;;;12.20;8.88;;;;;;;16.69;33.12;100001.53;10356439;28;20144;-62
2022/03/28 21:28:25;;;;;;;12.27;8.43;;;;;;;16.88;33.43;100029.94;10354172;28;20190;-62
2022/03/28 21:33:26;;;;;;;13.95;8.73;;;;;;;16.87;33.39;100028.25;10353785;28;20072;-62
2022/03/28 21:38:28;;;;;;;11.73;9.52;;;;;;;16.79;32.93;100020.19;10355217;28;20137;-62
2022/03/28 21:43:31;;;;;;;12.48;9.18;;;;;;;16.38;33.68;99990.66;10354228;28;20556;-62
2022/03/28 21:48:33;;;;;;;14.38;10.30;;;;;;;16.58;33.71;100018.84;10349034;28;20237;-62
2022/03/28 21:53:35;;;;;;;16.38;12.30;;;;;;;16.48;33.42;99994.00;10352356;28;20068;-62
2022/03/28 21:58:37;;;;;;;13.90;9.93;;;;;;;16.28;33.49;99992.66;10353233;28;20045;-63
2022/03/28 22:03:38;;;;;;;13.27;11.07;;;;;;;16.52;34.19;100016.00;10352380;28;20129;-62
2022/03/28 22:08:40;;;;;;;17.38;12.25;;;;;;;16.30;33.91;100014.81;10353834;28;20049;-63
2022/03/28 22:13:41;;;;;;;17.50;12.50;;;;;;;16.27;33.53;100013.28;10354241;28;20141;-62
2022/03/28 22:18:43;;;;;;;14.05;11.77;;;;;;;16.30;33.25;100014.81;10355342;28;20115;-62
2022/03/28 22:23:44;;;;;;;19.95;13.68;;;;;;;16.18;33.81;100017.84;10352349;28;20488;-62
2022/03/28 22:28:46;;;;;;;17.38;12.38;;;;;;;16.32;32.99;99999.34;10354862;28;20046;-61
2022/03/28 22:33:47;;;;;;;15.77;12.13;;;;;;;16.24;33.66;100009.09;10349798;28;20103;-62
2022/03/28 22:38:49;;;;;;;18.75;13.18;;;;;;;16.09;32.99;100000.00;10347840;28;20046;-62
2022/03/28 22:43:50;;;;;;;14.18;11.57;;;;;;;16.18;33.76;99992.81;10353851;28;20192;-62
2022/03/28 22:48:51;;;;;;;17.88;13.13;;;;;;;16.13;33.72;99996.00;10351762;28;20743;-60
2022/03/28 22:53:53;;;;;;;17.10;13.30;;;;;;;16.18;34.12;99990.97;10357106;28;20046;-62
2022/03/28 22:58:55;;;;;;;16.33;12.30;;;;;;;15.89;33.43;99961.91;10358309;28;20049;-63
2022/03/28 23:03:57;;;;;;;18.30;13.48;;;;;;;16.09;33.90;99986.59;10365060;28;20749;-62